.
WxDataArchive / Data Records for 2006-03-28
2006-03-27 March 2006 2006-03-29

Data Records for Tuesday, 28 March 2006

Time	Temp	Chill	HIndex	Humid	Dewpt	 Wind 	HiWind	WindDir	Rain 	Barom 
-----	----	-----	------	-----	-----	------	------	-------	-----	----- 
00:00	42.2	42.2	42.2	71	33.5	3	5	90	0.00	30.093 
00:05	42.2	42.2	42.2	71	33.5	3	6	112	0.00	30.093 
00:10	42.2	42.2	42.2	70	33.1	3	6	90	0.00	30.093 
00:15	42.3	42.3	42.3	71	33.6	2	5	112	0.00	30.087 
00:20	42.3	42.3	42.3	71	33.6	2	3	112	0.00	30.087 
00:25	42.2	42.2	42.2	72	33.8	2	5	90	0.00	30.087 
00:30	42.2	42.2	42.2	71	33.5	2	5	112	0.00	30.082 
00:35	42.2	42.2	42.2	73	34.2	2	4	112	0.00	30.082 
00:40	42.1	42.1	42.1	73	34.1	3	6	112	0.00	30.082 
00:45	41.9	41.9	41.9	74	34.2	2	7	112	0.00	30.076 
00:50	41.8	41.8	41.8	75	34.5	3	5	90	0.00	30.076 
00:55	41.6	41.6	41.6	76	34.6	3	6	112	0.00	30.076 
01:00	41.5	41.5	41.5	77	34.8	3	5	112	0.00	30.069 
01:05	41.3	41.3	41.3	78	35.0	3	7	90	0.00	30.069 
01:10	41.2	41.2	41.2	79	35.2	3	5	90	0.00	30.069 
01:15	41.1	41.1	41.1	80	35.4	2	4	112	0.01	30.067 
01:20	40.9	40.9	40.9	80	35.2	2	4	112	0.00	30.067 
01:25	40.9	40.9	40.9	81	35.5	2	5	90	0.00	30.067 
01:30	40.8	40.8	40.8	81	35.4	3	5	112	0.00	30.062 
01:35	40.8	40.8	40.8	82	35.7	3	5	112	0.00	30.062 
01:40	40.6	40.6	40.6	83	35.8	2	5	90	0.00	30.062 
01:45	40.6	40.6	40.6	83	35.8	2	4	90	0.00	30.053 
01:50	40.5	40.5	40.5	84	36.1	2	4	90	0.00	30.053 
01:55	40.5	40.5	40.5	83	35.8	3	5	90	0.00	30.053 
02:00	40.3	40.3	40.3	84	35.9	3	5	90	0.00	30.051 
02:05	40.3	40.3	40.3	84	35.9	3	6	90	0.00	30.051 
02:10	40.2	40.2	40.2	85	36.1	2	3	90	0.01	30.051 
02:15	40.2	40.2	40.2	86	36.4	2	4	112	0.00	30.047 
02:20	40.1	40.1	40.1	86	36.3	2	6	90	0.00	30.047 
02:25	40.1	40.1	40.1	87	36.5	2	4	90	0.00	30.047 
02:30	39.9	39.9	39.9	87	36.4	2	4	90	0.00	30.040 
02:35	39.9	39.9	39.9	87	36.4	2	5	112	0.01	30.040 
02:40	39.9	39.9	39.9	88	36.6	2	4	112	0.00	30.040 
02:45	39.8	39.8	39.8	88	36.5	2	5	112	0.00	30.035 
02:50	39.8	39.8	39.8	88	36.5	3	6	90	0.00	30.035 
02:55	39.8	39.8	39.8	88	36.5	3	5	112	0.00	30.035 
03:00	39.8	39.8	39.8	88	36.5	2	4	90	0.01	30.030 
03:05	39.6	39.6	39.6	88	36.3	2	4	112	0.00	30.030 
03:10	39.6	39.6	39.6	89	36.6	3	6	90	0.00	30.030 
03:15	39.6	39.6	39.6	89	36.6	3	6	90	0.00	30.025 
03:20	39.6	39.6	39.6	89	36.6	3	7	112	0.00	30.025 
03:25	39.6	39.6	39.6	89	36.6	3	6	112	0.01	30.025 
03:30	39.6	39.6	39.6	89	36.6	2	4	90	0.00	30.020 
03:35	39.6	39.6	39.6	90	36.9	3	6	90	0.00	30.020 
03:40	39.5	39.5	39.5	89	36.5	3	6	90	0.00	30.020 
03:45	39.5	39.5	39.5	89	36.5	2	6	90	0.00	30.022 
03:50	39.5	39.5	39.5	90	36.8	2	3	90	0.00	30.022 
03:55	39.5	39.5	39.5	90	36.8	1	4	90	0.01	30.022 
04:00	39.5	39.5	39.5	90	36.8	3	6	90	0.00	30.020 
04:05	39.5	39.5	39.5	90	36.8	2	5	90	0.00	30.020 
04:10	39.3	39.3	39.3	90	36.6	3	6	90	0.01	30.020 
04:15	39.3	39.3	39.3	91	36.9	3	7	90	0.00	30.016 
04:20	39.3	39.3	39.3	91	36.9	3	6	90	0.00	30.016 
04:25	39.3	39.3	39.3	91	36.9	2	5	90	0.01	30.016 
04:30	39.2	39.2	39.2	92	37.1	3	4	112	0.00	30.013 
04:35	39.2	39.2	39.2	92	37.1	3	6	90	0.01	30.013 
04:40	39.2	39.2	39.2	90	36.5	3	5	112	0.00	30.013 
04:45	39.2	39.2	39.2	92	37.1	3	7	112	0.01	30.008 
04:50	39.2	36.4	39.2	92	37.1	4	7	90	0.00	30.008 
04:55	39.2	39.2	39.2	92	37.1	3	6	112	0.01	30.008 
05:00	39.2	35.5	39.2	92	37.1	5	7	112	0.00	30.006 
05:05	39.3	36.5	39.3	91	36.9	4	9	112	0.01	30.006 
05:10	39.5	39.5	39.5	91	37.1	3	9	90	0.00	30.006 
05:15	39.5	36.7	39.5	91	37.1	4	7	112	0.00	30.006 
05:20	39.5	35.9	39.5	91	37.1	5	11	112	0.01	30.006 
05:25	39.5	35.9	39.5	91	37.1	5	12	90	0.00	30.006 
05:30	39.5	35.9	39.5	91	37.1	5	10	112	0.01	30.006 
05:35	39.5	35.9	39.5	91	37.1	5	11	112	0.00	30.006 
05:40	39.6	36.0	39.6	91	37.2	5	10	112	0.01	30.006 
05:45	39.6	36.9	39.6	91	37.2	4	9	90	0.00	30.005 
05:50	39.6	36.0	39.6	91	37.2	5	10	112	0.00	30.005 
05:55	39.6	36.0	39.6	91	37.2	5	11	112	0.00	30.005 
06:00	39.6	36.0	39.6	91	37.2	5	12	112	0.00	30.005 
06:05	39.6	36.0	39.6	91	37.2	5	9	112	0.01	30.005 
06:10	39.6	36.0	39.6	91	37.2	5	12	112	0.00	30.005 
06:15	39.6	36.0	39.6	91	37.2	5	11	112	0.00	30.005 
06:20	39.6	36.0	39.6	91	37.2	5	12	112	0.00	30.005 
06:25	39.6	36.0	39.6	91	37.2	5	10	90	0.00	30.005 
06:30	39.6	36.0	39.6	91	37.2	5	11	112	0.01	30.002 
06:35	39.8	35.5	39.8	90	37.1	6	14	112	0.00	30.002 
06:40	39.8	35.5	39.8	90	37.1	6	12	112	0.00	30.002 
06:45	39.9	35.6	39.9	90	37.2	6	11	112	0.00	30.001 
06:50	39.9	36.4	39.9	90	37.2	5	8	112	0.00	30.001 
06:55	39.9	36.4	39.9	90	37.2	5	12	112	0.00	30.001 
07:00	39.9	36.4	39.9	90	37.2	5	11	112	0.00	30.004 
07:05	39.9	36.4	39.9	90	37.2	5	12	112	0.00	30.004 
07:10	39.9	36.4	39.9	90	37.2	5	10	112	0.00	30.004 
07:15	39.9	37.2	39.9	90	37.2	4	7	112	0.00	30.005 
07:20	39.9	37.2	39.9	90	37.2	4	9	112	0.01	30.005 
07:25	39.9	36.4	39.9	90	37.2	5	9	112	0.00	30.005 
07:30	39.9	36.4	39.9	90	37.2	5	10	90	0.00	30.008 
07:35	39.9	37.2	39.9	90	37.2	4	11	112	0.00	30.008 
07:40	39.9	36.4	39.9	90	37.2	5	11	112	0.00	30.008 
07:45	39.9	37.2	39.9	90	37.2	4	9	90	0.00	30.013 
07:50	40.1	36.6	40.1	90	37.4	5	10	112	0.00	30.013 
07:55	40.1	36.6	40.1	89	37.1	5	9	90	0.00	30.013 
08:00	40.1	37.4	40.1	89	37.1	4	9	90	0.00	30.019 
08:05	40.2	37.5	40.2	89	37.2	4	10	90	0.00	30.019 
08:10	40.2	37.5	40.2	89	37.2	4	7	112	0.00	30.019 
08:15	40.2	37.5	40.2	89	37.2	4	9	112	0.00	30.021 
08:20	40.1	40.1	40.1	90	37.4	3	6	112	0.01	30.021 
08:25	40.1	40.1	40.1	90	37.4	3	7	112	0.00	30.021 
08:30	40.1	40.1	40.1	90	37.4	3	6	90	0.00	30.019 
08:35	39.9	39.9	39.9	90	37.2	3	7	112	0.00	30.019 
08:40	40.1	40.1	40.1	90	37.4	3	9	90	0.00	30.019 
08:45	40.1	37.4	40.1	90	37.4	4	7	112	0.00	30.025 
08:50	40.2	37.5	40.2	90	37.5	4	12	112	0.00	30.025 
08:55	40.3	40.3	40.3	90	37.6	3	6	112	0.00	30.025 
09:00	40.3	40.3	40.3	90	37.6	3	9	112	0.00	30.027 
09:05	40.3	40.3	40.3	90	37.6	3	10	112	0.00	30.027 
09:10	40.3	37.7	40.3	90	37.6	4	10	112	0.00	30.027 
09:15	40.3	37.7	40.3	90	37.6	4	9	90	0.00	30.028 
09:20	40.5	40.5	40.5	90	37.8	3	8	112	0.00	30.028 
09:25	40.5	40.5	40.5	91	38.1	2	4	90	0.00	30.028 
09:30	40.5	40.5	40.5	91	38.1	3	7	112	0.00	30.030 
09:35	40.5	37.9	40.5	90	37.8	4	11	112	0.00	30.030 
09:40	40.6	40.6	40.6	91	38.2	3	5	112	0.00	30.030 
09:45	40.8	40.8	40.8	91	38.4	3	6	112	0.00	30.036 
09:50	40.8	40.8	40.8	91	38.4	3	6	90	0.00	30.036 
09:55	40.9	40.9	40.9	91	38.5	3	7	112	0.00	30.036 
10:00	41.1	41.1	41.1	91	38.7	2	5	112	0.00	30.042 
10:05	41.1	41.1	41.1	91	38.7	3	6	90	0.00	30.042 
10:10	41.1	41.1	41.1	91	38.7	3	11	90	0.00	30.042 
10:15	41.2	38.7	41.2	91	38.8	4	9	112	0.00	30.047 
10:20	41.2	41.2	41.2	91	38.8	3	7	112	0.00	30.047 
10:25	41.3	41.3	41.3	91	38.9	3	7	112	0.00	30.047 
10:30	41.3	41.3	41.3	91	38.9	3	7	112	0.00	30.052 
10:35	41.3	41.3	41.3	91	38.9	3	7	112	0.00	30.052 
10:40	41.3	38.8	41.3	91	38.9	4	7	90	0.00	30.052 
10:45	41.3	38.8	41.3	91	38.9	4	7	112	0.00	30.055 
10:50	41.5	39.1	41.5	91	39.1	4	7	112	0.00	30.055 
10:55	41.5	39.1	41.5	91	39.1	4	9	112	0.00	30.055 
11:00	41.5	39.1	41.5	91	39.1	4	8	90	0.00	30.057 
11:05	41.6	41.6	41.6	91	39.2	2	6	90	0.00	30.057 
11:10	41.9	41.9	41.9	92	39.7	2	6	112	0.00	30.057 
11:15	41.9	39.5	41.9	91	39.5	4	7	112	0.00	30.058 
11:20	42.1	42.1	42.1	91	39.7	3	7	112	0.00	30.058 
11:25	42.2	42.2	42.2	91	39.8	3	5	112	0.00	30.058 
11:30	42.3	42.3	42.3	90	39.6	3	6	90	0.00	30.058 
11:35	42.3	40.0	42.3	90	39.6	4	8	112	0.00	30.058 
11:40	42.5	42.5	42.5	90	39.8	3	7	112	0.00	30.058 
11:45	42.8	42.8	42.8	90	40.1	3	7	112	0.00	30.058 
11:50	42.8	42.8	42.8	89	39.8	3	6	90	0.00	30.058 
11:55	42.8	40.6	42.8	89	39.8	4	8	112	0.00	30.058 
12:00	43.1	43.1	43.1	89	40.1	2	6	90	0.00	30.060 
12:05	43.2	43.2	43.2	89	40.2	3	7	112	0.00	30.060 
12:10	43.2	43.2	43.2	89	40.2	2	6	112	0.00	30.060 
12:15	43.3	43.3	43.3	89	40.3	3	7	90	0.00	30.058 
12:20	43.3	41.1	43.3	88	40.0	4	10	112	0.00	30.058 
12:25	43.3	41.1	43.3	89	40.3	4	7	112	0.00	30.058 
12:30	43.3	41.1	43.3	88	40.0	4	9	112	0.00	30.057 
12:35	43.3	41.1	43.3	88	40.0	4	10	112	0.00	30.057 
12:40	43.3	43.3	43.3	89	40.3	3	7	90	0.00	30.057 
12:45	43.3	41.1	43.3	88	40.0	4	10	112	0.00	30.058 
12:50	43.5	41.4	43.5	88	40.2	4	9	112	0.00	30.058 
12:55	43.5	40.6	43.5	88	40.2	5	10	112	0.00	30.058 
13:00	43.6	41.5	43.6	88	40.3	4	10	90	0.00	30.058 
13:05	43.8	43.8	43.8	88	40.5	2	5	112	0.00	30.058 
13:10	43.8	43.8	43.8	88	40.5	3	7	112	0.00	30.058 
13:15	43.8	41.7	43.8	88	40.5	4	10	90	0.00	30.057 
13:20	43.9	43.9	43.9	88	40.6	3	7	112	0.00	30.057 
13:25	43.9	41.8	43.9	88	40.6	4	8	112	0.00	30.057 
13:30	44.1	44.1	44.1	88	40.8	3	7	90	0.00	30.052 
13:35	44.1	42.1	44.1	87	40.5	4	8	112	0.00	30.052 
13:40	44.1	44.1	44.1	88	40.8	3	6	90	0.00	30.052 
13:45	44.1	44.1	44.1	87	40.5	3	9	90	0.00	30.052 
13:50	44.2	44.2	44.2	87	40.6	3	6	112	0.00	30.052 
13:55	44.3	44.3	44.3	86	40.4	3	5	90	0.00	30.052 
14:00	44.5	44.5	44.5	85	40.3	3	7	90	0.00	30.057 
14:05	44.5	44.5	44.5	85	40.3	3	6	112	0.00	30.057 
14:10	44.6	44.6	44.6	85	40.4	2	5	112	0.00	30.057 
14:15	44.5	44.5	44.5	84	40.0	3	6	112	0.00	30.066 
14:20	44.6	44.6	44.6	85	40.4	1	3	112	0.00	30.066 
14:25	44.6	44.6	44.6	85	40.4	1	3	90	0.00	30.066 
14:30	44.8	44.8	44.8	85	40.6	1	3	68	0.00	30.073 
14:35	44.8	44.8	44.8	85	40.6	1	2	68	0.00	30.073 
14:40	44.8	44.8	44.8	85	40.6	1	3	68	0.00	30.073 
14:45	44.8	44.8	44.8	84	40.3	2	5	90	0.00	30.073 
14:50	44.8	44.8	44.8	84	40.3	1	2	68	0.00	30.073 
14:55	44.9	44.9	44.9	85	40.7	1	3	90	0.00	30.073 
15:00	44.9	44.9	44.9	85	40.7	0	1	90	0.00	30.075 
15:05	44.9	44.9	44.9	84	40.4	1	3	90	0.00	30.075 
15:10	45.1	45.1	45.1	84	40.6	1	4	90	0.00	30.075 
15:15	45.1	45.1	45.1	84	40.6	1	2	90	0.00	30.076 
15:20	45.2	45.2	45.2	84	40.7	1	2	90	0.00	30.076 
15:25	45.2	45.2	45.2	84	40.7	0	1	90	0.00	30.076 
15:30	45.1	45.1	45.1	83	40.3	2	4	90	0.00	30.084 
15:35	45.1	45.1	45.1	83	40.3	1	5	90	0.00	30.084 
15:40	45.1	45.1	45.1	84	40.6	0	2	90	0.00	30.084 
15:45	45.1	45.1	45.1	84	40.6	1	3	90	0.00	30.087 
15:50	45.1	45.1	45.1	84	40.6	1	4	112	0.00	30.087 
15:55	45.1	45.1	45.1	84	40.6	0	2	112	0.00	30.087 
16:00	45.1	45.1	45.1	84	40.6	0	2	112	0.00	30.090 
16:05	45.1	45.1	45.1	84	40.6	1	3	90	0.00	30.090 
16:10	44.9	44.9	44.9	84	40.4	1	4	112	0.00	30.090 
16:15	44.9	44.9	44.9	84	40.4	0	1	112	0.00	30.099 
16:20	44.9	44.9	44.9	84	40.4	1	3	90	0.00	30.099 
16:25	44.9	44.9	44.9	84	40.4	1	3	68	0.00	30.099 
16:30	44.9	44.9	44.9	84	40.4	1	3	112	0.00	30.098 
16:35	44.9	44.9	44.9	85	40.7	1	5	112	0.00	30.098 
16:40	44.9	44.9	44.9	85	40.7	1	2	45	0.00	30.098 
16:45	44.8	44.8	44.8	85	40.6	1	3	45	0.00	30.105 
16:50	44.8	44.8	44.8	85	40.6	1	3	90	0.00	30.105 
16:55	44.9	44.9	44.9	85	40.7	1	3	90	0.00	30.105 
17:00	44.9	44.9	44.9	85	40.7	1	3	112	0.00	30.108 
17:05	44.9	44.9	44.9	85	40.7	1	3	112	0.00	30.108 
17:10	44.9	44.9	44.9	85	40.7	1	3	90	0.00	30.108 
17:15	44.9	44.9	44.9	86	41.0	0	2	90	0.00	30.116 
17:20	44.8	44.8	44.8	87	41.2	0	1	90	0.00	30.116 
17:25	44.8	44.8	44.8	87	41.2	0	1	90	0.00	30.116 
17:30	44.6	44.6	44.6	88	41.3	0	1	90	0.00	30.120 
17:35	44.5	44.5	44.5	88	41.2	0	1	90	0.00	30.120 
17:40	44.3	44.3	44.3	88	41.0	0	1	90	0.00	30.120 
17:45	44.3	44.3	44.3	88	41.0	0	1	90	0.00	30.123 
17:50	44.2	44.2	44.2	89	41.2	0	1	90	0.00	30.123 
17:55	44.2	44.2	44.2	89	41.2	0	3	90	0.00	30.123 
18:00	44.1	44.1	44.1	89	41.1	1	3	68	0.00	30.133 
18:05	44.1	44.1	44.1	90	41.4	1	3	45	0.00	30.133 
18:10	43.8	43.8	43.8	90	41.1	2	4	112	0.00	30.133 
18:15	43.6	43.6	43.6	90	40.9	2	6	112	0.00	30.138 
18:20	43.3	43.3	43.3	90	40.6	1	2	90	0.00	30.138 
18:25	43.3	43.3	43.3	90	40.6	1	2	90	0.00	30.138 
18:30	43.3	43.3	43.3	91	40.9	0	2	90	0.00	30.141 
18:35	43.2	43.2	43.2	91	40.8	0	1	90	0.00	30.141 
18:40	43.2	43.2	43.2	91	40.8	0	1	90	0.00	30.141 
18:45	43.2	43.2	43.2	91	40.8	0	1	90	0.00	30.143 
18:50	43.2	43.2	43.2	91	40.8	0	0	---	0.00	30.143 
18:55	43.1	43.1	43.1	90	40.4	0	0	---	0.00	30.143 
19:00	43.1	43.1	43.1	90	40.4	0	1	90	0.00	30.147 
19:05	43.1	43.1	43.1	90	40.4	0	0	---	0.00	30.147 
19:10	43.1	43.1	43.1	90	40.4	0	1	90	0.00	30.147 
19:15	43.1	43.1	43.1	90	40.4	0	0	---	0.00	30.153 
19:20	43.1	43.1	43.1	90	40.4	0	1	90	0.00	30.153 
19:25	43.1	43.1	43.1	89	40.1	0	0	---	0.00	30.153 
19:30	43.1	43.1	43.1	89	40.1	0	1	90	0.00	30.156 
19:35	43.1	43.1	43.1	89	40.1	0	2	90	0.00	30.156 
19:40	43.1	43.1	43.1	89	40.1	0	1	90	0.00	30.156 
19:45	43.1	43.1	43.1	89	40.1	0	1	90	0.00	30.165 
19:50	43.1	43.1	43.1	89	40.1	0	2	90	0.00	30.165 
19:55	43.1	43.1	43.1	89	40.1	0	2	90	0.00	30.165 
20:00	43.1	43.1	43.1	89	40.1	0	1	90	0.00	30.167 
20:05	43.1	43.1	43.1	89	40.1	0	1	90	0.00	30.167 
20:10	43.1	43.1	43.1	89	40.1	0	1	90	0.00	30.167 
20:15	43.1	43.1	43.1	90	40.4	0	0	---	0.00	30.171 
20:20	42.9	42.9	42.9	90	40.2	0	0	---	0.00	30.171 
20:25	42.9	42.9	42.9	90	40.2	0	1	90	0.00	30.171 
20:30	42.9	42.9	42.9	90	40.2	0	0	---	0.00	30.172 
20:35	42.8	42.8	42.8	91	40.4	0	1	90	0.00	30.172 
20:40	42.8	42.8	42.8	91	40.4	0	0	---	0.00	30.172 
20:45	42.8	42.8	42.8	91	40.4	0	1	90	0.00	30.177 
20:50	42.8	42.8	42.8	91	40.4	0	0	---	0.00	30.177 
20:55	42.6	42.6	42.6	91	40.2	0	0	---	0.00	30.177 
21:00	42.6	42.6	42.6	92	40.4	0	0	---	0.00	30.182 
21:05	42.6	42.6	42.6	92	40.4	0	0	---	0.00	30.182 
21:10	42.6	42.6	42.6	92	40.4	0	0	---	0.00	30.182 
21:15	42.5	42.5	42.5	92	40.3	0	0	---	0.00	30.183 
21:20	42.5	42.5	42.5	92	40.3	0	0	---	0.00	30.183 
21:25	42.5	42.5	42.5	92	40.3	0	2	90	0.00	30.183 
21:30	42.5	42.5	42.5	92	40.3	1	2	90	0.00	30.186 
21:35	42.5	42.5	42.5	92	40.3	0	2	68	0.00	30.186 
21:40	42.3	42.3	42.3	92	40.1	0	1	68	0.00	30.186 
21:45	42.3	42.3	42.3	92	40.1	0	1	68	0.00	30.192 
21:50	42.3	42.3	42.3	92	40.1	0	1	68	0.00	30.192 
21:55	42.3	42.3	42.3	92	40.1	0	1	68	0.00	30.192 
22:00	42.2	42.2	42.2	92	40.0	0	1	68	0.00	30.196 
22:05	42.2	42.2	42.2	91	39.8	0	1	68	0.00	30.196 
22:10	42.2	42.2	42.2	90	39.5	0	2	68	0.00	30.196 
22:15	42.3	42.3	42.3	89	39.3	0	2	68	0.00	30.197 
22:20	42.3	42.3	42.3	89	39.3	0	2	68	0.00	30.197 
22:25	42.5	42.5	42.5	88	39.2	0	1	68	0.00	30.197 
22:30	42.5	42.5	42.5	88	39.2	0	2	68	0.00	30.196 
22:35	42.6	42.6	42.6	87	39.0	0	1	68	0.00	30.196 
22:40	42.6	42.6	42.6	87	39.0	0	1	68	0.00	30.196 
22:45	42.8	42.8	42.8	86	38.9	1	3	68	0.00	30.193 
22:50	42.8	42.8	42.8	86	38.9	0	2	68	0.00	30.193 
22:55	42.9	42.9	42.9	86	39.0	0	2	68	0.00	30.193 
23:00	42.9	42.9	42.9	86	39.0	1	3	68	0.00	30.196 
23:05	42.9	42.9	42.9	86	39.0	1	2	90	0.00	30.196 
23:10	42.9	42.9	42.9	86	39.0	0	1	90	0.00	30.196 
23:15	42.9	42.9	42.9	86	39.0	0	1	90	0.00	30.194 
23:20	42.9	42.9	42.9	86	39.0	1	2	90	0.00	30.194 
23:25	42.9	42.9	42.9	86	39.0	0	1	90	0.00	30.194 
23:30	42.9	42.9	42.9	86	39.0	0	2	90	0.00	30.196 
23:35	42.9	42.9	42.9	86	39.0	0	1	90	0.00	30.196 
23:40	42.8	42.8	42.8	86	38.9	0	1	90	0.00	30.196 
23:45	42.8	42.8	42.8	86	38.9	0	1	90	0.00	30.197 
23:50	42.8	42.8	42.8	86	38.9	0	2	90	0.00	30.197 
23:55	42.8	42.8	42.8	86	38.9	0	0	---	0.00	30.197 

CoCoRaHS
IN-AL-39
A2 Web Hosting
Creative Commons License
GoDaddy
Look for:

loaded 2017-10-17 18:31:40 • last modified 2010-11-18 10:43:29
Privacy PolicyDisclaimer
• wx.awcolley.com is powered by PmWiki v.2002016 •
• all content (unless otherwise noted) © 2017 A W Colley